Time;durP1;ratioP1;P1;durP2;ratioP2;P2;SDS_P1;SDS_P2;PMS_P1;PMS_P2;Temp;Humidity;BMP_temperature;BMP_pressure;BME280_temperature;BME280_humidity;BME280_pressure;Samples;Min_cycle;Max_cycle;Signal;HPM_P1;HPM_P2
2023/05/30 00:01:24;;;;;;;16.30;4.30;;;;;;;8.57;100.00;102613.34;7392671;19;20391;-34
2023/05/30 00:03:53;;;;;;;16.53;3.90;;;;;;;8.49;100.00;102626.47;7387337;19;20442;-35
2023/05/30 00:06:26;;;;;;;27.10;4.37;;;;;;;8.44;100.00;102632.91;7392290;19;20399;-34
2023/05/30 00:08:56;;;;;;;19.20;4.07;;;;;;;8.40;100.00;102646.28;7390225;19;20514;-34
2023/05/30 00:11:28;;;;;;;24.23;4.40;;;;;;;8.36;100.00;102649.41;7394572;19;20396;-35
2023/05/30 00:14:01;;;;;;;20.17;4.30;;;;;;;8.32;100.00;102662.78;7388622;19;20515;-34
2023/05/30 00:16:31;;;;;;;20.40;4.77;;;;;;;8.28;100.00;102645.28;7394476;19;20380;-35
2023/05/30 00:19:04;;;;;;;22.50;4.67;;;;;;;8.32;100.00;102637.06;7390833;19;20431;-34
2023/05/30 00:21:36;;;;;;;15.37;4.90;;;;;;;8.23;100.00;102632.97;7393622;19;20394;-35
2023/05/30 00:24:06;;;;;;;20.10;4.80;;;;;;;8.19;100.00;102625.78;7387323;19;20440;-33
2023/05/30 00:26:36;;;;;;;12.23;4.00;;;;;;;8.01;100.00;102630.31;7391261;19;20395;-34
2023/05/30 00:29:06;;;;;;;23.43;5.57;;;;;;;8.02;100.00;102624.41;7388209;19;20499;-34
2023/05/30 00:31:35;;;;;;;19.87;3.87;;;;;;;7.95;100.00;102615.28;7393790;19;20405;-34
2023/05/30 00:34:05;;;;;;;18.70;4.63;;;;;;;7.91;100.00;102609.75;7389864;19;20829;-35
2023/05/30 00:36:37;;;;;;;17.23;5.03;;;;;;;7.91;100.00;102597.81;7393612;19;20718;-34
2023/05/30 00:39:07;;;;;;;22.20;5.10;;;;;;;7.79;100.00;102571.13;7391366;19;20968;-34
2023/05/30 00:41:36;;;;;;;13.73;4.07;;;;;;;7.81;100.00;102554.13;7394904;19;20406;-34
2023/05/30 00:44:06;;;;;;;22.80;4.00;;;;;;;7.84;100.00;102546.66;7388148;19;20430;-34
2023/05/30 00:46:35;;;;;;;16.23;3.77;;;;;;;7.89;100.00;102517.09;7390847;19;20395;-34
2023/05/30 00:49:06;;;;;;;16.63;3.83;;;;;;;7.84;100.00;102514.16;7390034;19;20521;-34
2023/05/30 00:51:38;;;;;;;15.23;4.07;;;;;;;7.77;100.00;102495.53;7393275;19;20780;-35
2023/05/30 00:54:08;;;;;;;20.30;5.43;;;;;;;7.70;100.00;102474.50;7387634;19;20970;-34
2023/05/30 00:56:38;;;;;;;13.20;4.13;;;;;;;7.72;100.00;102471.13;7390714;19;20407;-34
2023/05/30 00:59:08;;;;;;;17.33;3.70;;;;;;;7.74;100.00;102464.47;7390142;19;20511;-34
2023/05/30 01:01:37;;;;;;;12.43;3.77;;;;;;;7.71;100.00;102454.84;7390864;19;21242;-34
2023/05/30 01:04:08;;;;;;;16.63;3.97;;;;;;;7.69;100.00;102441.88;7386936;19;20431;-34
2023/05/30 01:06:41;;;;;;;14.83;3.30;;;;;;;7.65;100.00;102439.81;7390699;19;20400;-34
2023/05/30 01:09:10;;;;;;;16.27;3.77;;;;;;;7.62;100.00;102438.66;7388954;19;20440;-34
2023/05/30 01:11:50;;;;;;;13.60;3.57;;;;;;;7.63;100.00;102435.34;7392748;19;20384;-34
2023/05/30 01:14:25;;;;;;;11.20;3.40;;;;;;;7.57;100.00;102431.50;7387489;19;20806;-34
2023/05/30 01:16:57;;;;;;;19.90;4.17;;;;;;;7.62;100.00;102429.31;7390696;19;20391;-34
2023/05/30 01:19:46;;;;;;;27.97;5.10;;;;;;;7.57;100.00;102426.38;7388307;19;20444;-34
2023/05/30 01:22:39;;;;;;;11.33;3.10;;;;;;;7.54;100.00;102425.22;7389855;19;20411;-34
2023/05/30 01:25:29;;;;;;;16.67;3.90;;;;;;;7.48;100.00;102427.31;7388500;19;20449;-34
2023/05/30 01:28:08;;;;;;;18.90;3.97;;;;;;;7.47;100.00;102423.81;7387450;19;20419;-34
2023/05/30 01:30:40;;;;;;;16.63;3.77;;;;;;;7.45;100.00;102425.38;7390489;19;20812;-34
2023/05/30 01:33:10;;;;;;;18.17;3.30;;;;;;;7.42;100.00;102428.59;7387470;19;20446;-34
2023/05/30 01:35:40;;;;;;;10.83;3.43;;;;;;;7.39;100.00;102423.19;7389693;19;20427;-34
2023/05/30 01:38:10;;;;;;;13.50;2.70;;;;;;;7.38;100.00;102428.22;7387796;19;20418;-34
2023/05/30 01:40:41;;;;;;;16.10;4.33;;;;;;;7.47;100.00;102422.91;7391561;19;20447;-35
2023/05/30 01:43:18;;;;;;;12.70;3.20;;;;;;;7.33;100.00;102420.13;7386771;19;20486;-34
2023/05/30 01:45:54;;;;;;;13.60;3.00;;;;;;;7.30;100.00;102414.75;7389667;19;20777;-34
2023/05/30 01:48:28;;;;;;;9.03;3.50;;;;;;;7.31;100.00;102424.25;7387060;19;20398;-34
2023/05/30 01:51:00;;;;;;;15.97;4.00;;;;;;;7.37;100.00;102422.19;7389543;19;20934;-34
2023/05/30 01:53:33;;;;;;;14.60;3.83;;;;;;;7.34;100.00;102421.03;7387774;19;20414;-34
2023/05/30 01:56:03;;;;;;;17.30;4.53;;;;;;;7.28;100.00;102416.31;7393616;19;20459;-34
2023/05/30 01:58:37;;;;;;;19.27;4.83;;;;;;;7.28;100.00;102421.44;7386158;19;20442;-35
2023/05/30 02:01:07;;;;;;;11.03;3.30;;;;;;;7.25;100.00;102410.91;7389643;19;20400;-34
2023/05/30 02:03:37;;;;;;;14.60;3.80;;;;;;;7.28;100.00;102416.31;7385645;19;20505;-34
2023/05/30 02:06:07;;;;;;;13.57;3.70;;;;;;;7.25;100.00;102409.25;7389049;19;20417;-34
2023/05/30 02:08:36;;;;;;;14.30;3.30;;;;;;;7.26;100.00;102412.69;7384080;19;20430;-34
2023/05/30 02:11:06;;;;;;;17.57;3.60;;;;;;;7.20;100.00;102417.31;7389275;19;20927;-34
2023/05/30 02:13:40;;;;;;;19.13;3.87;;;;;;;7.20;100.00;102417.31;7385639;19;20423;-34
2023/05/30 02:16:10;;;;;;;11.50;3.70;;;;;;;7.19;100.00;102411.31;7389290;19;20396;-34
2023/05/30 02:18:40;;;;;;;18.53;4.30;;;;;;;7.12;100.00;102417.59;7386387;19;20426;-35
2023/05/30 02:21:10;;;;;;;16.17;4.20;;;;;;;7.12;100.00;102414.13;7390538;19;20392;-34
2023/05/30 02:23:40;;;;;;;16.03;4.37;;;;;;;7.10;100.00;102419.16;7386289;19;20715;-34
2023/05/30 02:26:10;;;;;;;20.00;4.30;;;;;;;7.11;100.00;102423.50;7388270;19;20840;-34
2023/05/30 02:28:42;;;;;;;16.77;4.00;;;;;;;7.06;100.00;102426.44;7386130;19;20425;-34
2023/05/30 02:31:12;;;;;;;15.13;4.27;;;;;;;7.06;100.00;102417.09;7388846;19;20395;-34
2023/05/30 02:33:41;;;;;;;19.80;3.90;;;;;;;7.01;100.00;102411.59;7386424;19;21395;-34
2023/05/30 02:36:12;;;;;;;26.50;3.70;;;;;;;7.00;100.00;102414.94;7393459;19;20395;-35
2023/05/30 02:38:41;;;;;;;18.60;3.73;;;;;;;6.99;100.00;102414.78;7387122;19;20426;-35
2023/05/30 02:41:11;;;;;;;11.97;4.27;;;;;;;7.01;100.00;102420.94;7388311;19;21244;-34
2023/05/30 02:43:45;;;;;;;19.63;4.17;;;;;;;6.95;100.00;102405.03;7385112;19;20449;-34
2023/05/30 02:46:15;;;;;;;16.93;3.90;;;;;;;6.91;100.00;102406.44;7389822;19;20360;-34
2023/05/30 02:48:44;;;;;;;11.10;3.53;;;;;;;6.94;100.00;102398.09;7386353;19;20765;-34
2023/05/30 02:51:14;;;;;;;14.80;4.20;;;;;;;6.93;100.00;102396.31;7390593;19;20494;-34
2023/05/30 02:53:43;;;;;;;15.37;4.67;;;;;;;6.89;100.00;102401.19;7390889;19;21033;-34
2023/05/30 02:56:13;;;;;;;15.23;4.27;;;;;;;6.86;100.00;102388.13;7397304;19;20400;-35
2023/05/30 02:58:45;;;;;;;16.03;3.50;;;;;;;6.83;100.00;102385.28;7392481;19;20414;-34
2023/05/30 03:01:15;;;;;;;15.73;3.20;;;;;;;6.73;100.00;102375.91;7398634;19;20399;-34
2023/05/30 03:03:45;;;;;;;18.63;3.83;;;;;;;6.76;100.00;102372.72;7391272;19;20403;-34
2023/05/30 03:06:15;;;;;;;14.13;3.67;;;;;;;6.69;100.00;102368.75;7396766;19;20391;-34
2023/05/30 03:08:45;;;;;;;25.23;4.20;;;;;;;6.73;100.00;102373.34;7392192;19;20836;-34
2023/05/30 03:11:14;;;;;;;17.00;4.03;;;;;;;6.66;100.00;102362.47;7394465;19;20395;-34
2023/05/30 03:13:46;;;;;;;11.03;4.07;;;;;;;6.67;100.00;102356.56;7390287;19;20423;-34
2023/05/30 03:16:16;;;;;;;10.87;3.70;;;;;;;6.67;100.00;102356.56;7394215;19;20400;-34
2023/05/30 03:18:46;;;;;;;15.47;3.40;;;;;;;6.67;100.00;102354.00;7392024;19;20841;-38
2023/05/30 03:21:15;;;;;;;8.13;3.77;;;;;;;7.09;100.00;102342.94;7396289;19;20995;-34
2023/05/30 03:23:45;;;;;;;15.00;5.10;;;;;;;7.26;100.00;102338.25;7390195;19;20418;-34
2023/05/30 03:26:15;;;;;;;18.10;4.70;;;;;;;7.39;100.00;102333.31;7393505;19;20395;-34
2023/05/30 03:28:48;;;;;;;37.23;15.40;;;;;;;8.05;100.00;102307.56;7391794;19;20982;-34
2023/05/30 03:31:18;;;;;;;51.30;22.00;;;;;;;8.47;100.00;102303.84;7394187;19;20391;-35
2023/05/30 03:33:48;;;;;;;24.90;10.20;;;;;;;8.59;100.00;102311.66;7390461;19;20427;-35
2023/05/30 03:36:18;;;;;;;12.73;4.03;;;;;;;8.00;100.00;102350.88;7393417;19;20387;-35
2023/05/30 03:38:47;;;;;;;14.60;5.37;;;;;;;7.54;100.00;102373.84;7392625;19;21033;-35
2023/05/30 03:41:17;;;;;;;18.23;3.87;;;;;;;7.36;100.00;102384.44;7395963;19;20479;-35
2023/05/30 03:43:49;;;;;;;13.43;4.53;;;;;;;7.26;100.00;102387.94;7389804;19;20962;-34
2023/05/30 03:46:19;;;;;;;16.17;3.47;;;;;;;7.25;100.00;102386.16;7393120;19;20408;-34
2023/05/30 03:48:49;;;;;;;13.70;5.17;;;;;;;7.30;100.00;102396.78;7390548;19;20418;-35
2023/05/30 03:51:19;;;;;;;16.90;4.83;;;;;;;7.33;100.00;102398.69;7393280;19;20471;-35
2023/05/30 03:53:48;;;;;;;12.33;4.27;;;;;;;7.35;100.00;102407.41;7391724;19;20439;-35
2023/05/30 03:56:18;;;;;;;16.27;4.00;;;;;;;7.39;100.00;102405.22;7393164;19;20392;-34
2023/05/30 03:58:50;;;;;;;22.53;4.90;;;;;;;7.47;100.00;102402.38;7391016;19;20415;-35
2023/05/30 04:01:20;;;;;;;15.83;4.00;;;;;;;7.51;100.00;102396.72;7396463;19;21074;-35
2023/05/30 04:03:50;;;;;;;17.03;4.07;;;;;;;7.57;100.00;102394.63;7391806;19;20974;-34
2023/05/30 04:06:19;;;;;;;11.03;3.73;;;;;;;7.62;100.00;102398.47;7392192;19;20395;-34
2023/05/30 04:08:49;;;;;;;19.80;5.97;;;;;;;7.63;100.00;102400.28;7389355;19;20995;-35
2023/05/30 04:11:18;;;;;;;16.60;3.93;;;;;;;7.67;100.00;102401.41;7392721;19;20388;-35
2023/05/30 04:13:50;;;;;;;17.87;4.40;;;;;;;7.70;100.00;102397.41;7391244;19;20786;-34
2023/05/30 04:16:20;;;;;;;17.43;4.80;;;;;;;7.80;100.00;102395.59;7392604;19;20388;-34
2023/05/30 04:18:50;;;;;;;17.23;4.07;;;;;;;7.81;100.00;102412.78;7390066;19;20431;-35
2023/05/30 04:21:20;;;;;;;21.33;4.37;;;;;;;7.84;100.00;102416.50;7392214;19;20510;-35
2023/05/30 04:23:49;;;;;;;19.07;4.87;;;;;;;7.87;100.00;102410.72;7389020;19;20430;-35
2023/05/30 04:26:20;;;;;;;20.87;4.70;;;;;;;7.89;100.00;102419.44;7394299;19;20403;-34
2023/05/30 04:28:52;;;;;;;21.00;4.30;;;;;;;7.93;100.00;102425.72;7390222;19;20427;-34
2023/05/30 04:31:22;;;;;;;18.17;5.23;;;;;;;7.94;100.00;102432.63;7394490;19;20392;-34
2023/05/30 04:33:53;;;;;;;21.13;5.33;;;;;;;7.98;100.00;102432.13;7389434;19;20431;-35
2023/05/30 04:36:23;;;;;;;14.87;4.70;;;;;;;8.01;100.00;102436.59;7392372;19;20392;-34
2023/05/30 04:38:54;;;;;;;22.93;4.90;;;;;;;8.12;100.00;102451.22;7389811;19;20812;-34
2023/05/30 04:41:24;;;;;;;21.90;5.83;;;;;;;8.18;100.00;102449.13;7396266;19;20405;-34
2023/05/30 04:43:57;;;;;;;20.13;4.93;;;;;;;8.21;100.00;102456.19;7387146;19;20447;-34
2023/05/30 04:46:27;;;;;;;18.40;5.20;;;;;;;8.19;100.00;102456.06;7396258;19;20410;-35
2023/05/30 04:49:00;;;;;;;17.17;4.83;;;;;;;8.22;100.00;102460.56;7388895;19;20514;-35
2023/05/30 04:51:32;;;;;;;22.93;5.80;;;;;;;8.32;100.00;102457.03;7392978;19;20390;-35
2023/05/30 04:54:01;;;;;;;18.57;5.33;;;;;;;8.39;100.00;102461.88;7388492;19;20431;-34
2023/05/30 04:56:31;;;;;;;14.20;4.50;;;;;;;8.47;100.00;102468.50;7391787;19;20394;-34
2023/05/30 04:59:03;;;;;;;17.97;5.30;;;;;;;8.42;100.00;102474.97;7389935;19;20419;-34
2023/05/30 05:01:35;;;;;;;11.83;4.50;;;;;;;8.46;100.00;102482.13;7390782;19;20408;-36
2023/05/30 05:04:05;;;;;;;23.73;6.27;;;;;;;8.49;100.00;102487.53;7387042;19;20436;-34
2023/05/30 05:06:36;;;;;;;18.43;5.23;;;;;;;8.54;100.00;102495.63;7395260;19;20411;-34
2023/05/30 05:09:05;;;;;;;21.90;6.77;;;;;;;8.53;100.00;102500.66;7388503;19;20838;-34
2023/05/30 05:11:35;;;;;;;22.93;5.63;;;;;;;8.56;100.00;102498.34;7390478;19;21238;-35
2023/05/30 05:14:07;;;;;;;22.83;6.20;;;;;;;8.63;100.00;102509.22;7384705;19;20454;-34
2023/05/30 05:16:37;;;;;;;19.93;5.23;;;;;;;8.67;100.00;102515.47;7395413;19;20760;-35
2023/05/30 05:19:07;;;;;;;16.50;5.20;;;;;;;8.69;100.00;102521.66;7390279;19;20446;-34
2023/05/30 05:21:36;;;;;;;22.23;5.70;;;;;;;8.70;100.00;102523.47;7394939;19;20407;-34
2023/05/30 05:24:07;;;;;;;15.10;5.87;;;;;;;8.71;100.00;102525.25;7389571;19;20459;-35
2023/05/30 05:26:36;;;;;;;15.53;5.60;;;;;;;8.70;100.00;102533.75;7395113;19;20416;-35
2023/05/30 05:29:09;;;;;;;24.10;5.80;;;;;;;8.76;100.00;102541.94;7386592;19;20459;-34
2023/05/30 05:31:38;;;;;;;14.27;5.27;;;;;;;8.89;100.00;102543.81;7394627;19;20760;-37
2023/05/30 05:34:08;;;;;;;19.40;7.23;;;;;;;8.92;100.00;102545.69;7388948;19;20451;-35
2023/05/30 05:36:37;;;;;;;14.77;5.20;;;;;;;8.88;100.00;102549.72;7395317;19;20404;-34
2023/05/30 05:39:10;;;;;;;16.80;4.80;;;;;;;8.84;100.00;102551.94;7389885;19;20439;-35
2023/05/30 05:41:39;;;;;;;19.70;6.10;;;;;;;8.88;100.00;102554.88;7392657;19;20413;-35
2023/05/30 05:44:11;;;;;;;16.93;6.50;;;;;;;8.87;100.00;102558.22;7389425;19;20550;-35
2023/05/30 05:46:41;;;;;;;18.53;5.70;;;;;;;8.90;100.00;102558.47;7392931;19;20479;-35
2023/05/30 05:49:11;;;;;;;19.63;5.80;;;;;;;8.96;100.00;102559.72;7389966;19;20824;-34
2023/05/30 05:51:40;;;;;;;13.60;5.47;;;;;;;8.98;100.00;102564.19;7394322;19;20405;-34
2023/05/30 05:54:10;;;;;;;13.60;5.77;;;;;;;9.01;100.00;102569.59;7387101;19;20519;-34
2023/05/30 05:56:39;;;;;;;19.73;6.23;;;;;;;9.00;100.00;102570.38;7388899;19;20396;-34
2023/05/30 05:59:12;;;;;;;18.13;5.70;;;;;;;8.98;100.00;102571.03;7386318;19;20439;-34
2023/05/30 06:01:42;;;;;;;18.37;5.30;;;;;;;9.00;100.00;102570.38;7387900;19;20399;-34
2023/05/30 06:04:13;;;;;;;17.53;5.50;;;;;;;9.08;100.00;102572.66;7382890;19;20438;-35
2023/05/30 06:06:43;;;;;;;15.97;5.33;;;;;;;9.12;100.00;102566.97;7391054;19;20471;-35
2023/05/30 06:09:12;;;;;;;19.27;5.47;;;;;;;9.09;100.00;102564.13;7386015;19;21276;-34
2023/05/30 06:11:42;;;;;;;16.17;5.20;;;;;;;9.15;100.00;102569.75;7389152;19;20402;-35
2023/05/30 06:14:14;;;;;;;12.37;5.77;;;;;;;9.04;100.00;102569.81;7385937;19;20420;-34
2023/05/30 06:16:44;;;;;;;13.73;5.90;;;;;;;9.18;100.00;102570.88;7389135;19;20803;-35
2023/05/30 06:19:13;;;;;;;19.17;5.77;;;;;;;9.24;100.00;102567.91;7386242;19;20427;-34
2023/05/30 06:21:43;;;;;;;24.03;5.67;;;;;;;9.29;100.00;102584.56;7390950;19;20384;-34
2023/05/30 06:24:13;;;;;;;14.20;5.30;;;;;;;9.35;100.00;102580.69;7383472;19;20434;-34
2023/05/30 06:26:42;;;;;;;13.67;5.50;;;;;;;9.43;100.00;102587.28;7391817;19;20475;-35
2023/05/30 06:29:14;;;;;;;13.80;4.70;;;;;;;9.61;100.00;102579.16;7392950;19;20439;-34
2023/05/30 06:31:44;;;;;;;20.70;7.70;;;;;;;9.79;100.00;102593.44;7398024;19;20400;-34
2023/05/30 06:34:13;;;;;;;10.73;4.53;;;;;;;9.63;100.00;102598.25;7395512;19;20516;-34
2023/05/30 06:36:43;;;;;;;15.53;5.90;;;;;;;9.64;100.00;102597.44;7398363;19;20401;-35
2023/05/30 06:39:15;;;;;;;12.50;4.50;;;;;;;9.78;100.00;102612.25;7395802;19;20438;-34
2023/05/30 06:41:45;;;;;;;10.77;4.80;;;;;;;9.79;100.00;102606.31;7401299;19;20427;-35
2023/05/30 06:44:17;;;;;;;13.57;4.07;;;;;;;9.98;100.00;102610.25;7393658;19;20805;-34
2023/05/30 06:46:47;;;;;;;18.83;5.40;;;;;;;9.88;100.00;102613.84;7400498;19;20477;-35
2023/05/30 06:49:16;;;;;;;10.37;3.97;;;;;;;9.83;100.00;102618.66;7394577;19;20524;-35
2023/05/30 06:51:46;;;;;;;9.70;3.63;;;;;;;10.03;100.00;102628.66;7398646;19;20410;-34
2023/05/30 06:54:16;;;;;;;12.20;4.80;;;;;;;10.07;100.00;102628.09;7393639;19;20884;-35
2023/05/30 06:56:47;;;;;;;13.90;4.40;;;;;;;10.10;100.00;102636.94;7400212;19;20410;-34
2023/05/30 06:59:19;;;;;;;15.30;6.03;;;;;;;10.49;100.00;102644.06;7395554;19;20851;-35
2023/05/30 07:01:48;;;;;;;28.83;14.90;;;;;;;10.37;100.00;102657.81;7397762;19;20782;-35
2023/05/30 07:04:19;;;;;;;25.17;12.57;;;;;;;11.10;100.00;102648.28;7393435;19;20479;-35
2023/05/30 07:06:49;;;;;;;30.70;12.73;;;;;;;11.23;100.00;102670.72;7396652;19;20388;-34
2023/05/30 07:09:19;;;;;;;16.77;6.47;;;;;;;11.35;100.00;102684.50;7394026;19;21108;-34
2023/05/30 07:11:49;;;;;;;29.80;13.23;;;;;;;11.05;100.00;102691.88;7399747;19;20403;-35
2023/05/30 07:14:21;;;;;;;26.73;11.03;;;;;;;11.29;100.00;102691.84;7393741;19;20450;-35
2023/05/30 07:16:51;;;;;;;20.47;9.17;;;;;;;11.21;100.00;102699.94;7397652;19;20418;-35
2023/05/30 07:19:20;;;;;;;20.47;6.50;;;;;;;11.20;100.00;102705.91;7394259;19;20512;-34
2023/05/30 07:21:50;;;;;;;39.20;14.13;;;;;;;10.99;100.00;102705.28;7396391;19;20408;-34
2023/05/30 07:24:21;;;;;;;19.60;7.23;;;;;;;11.10;100.00;102705.13;7391531;19;21131;-35
2023/05/30 07:26:51;;;;;;;16.23;5.83;;;;;;;11.42;100.00;102709.97;7398527;19;20443;-35
2023/05/30 07:29:24;;;;;;;11.20;4.10;;;;;;;11.06;100.00;102704.00;7392871;19;20931;-34
2023/05/30 07:31:54;;;;;;;23.00;10.53;;;;;;;11.03;100.00;102701.22;7396280;19;21126;-34
2023/05/30 07:34:23;;;;;;;20.00;7.50;;;;;;;10.82;100.00;102703.16;7392804;19;20990;-35
2023/05/30 07:36:53;;;;;;;28.33;13.70;;;;;;;10.99;100.00;102706.94;7397915;19;20424;-34
2023/05/30 07:39:23;;;;;;;18.50;9.20;;;;;;;11.53;100.00;102712.41;7394770;19;20472;-34
2023/05/30 07:41:52;;;;;;;14.77;4.77;;;;;;;11.17;100.00;102712.50;7399039;19;20519;-35
2023/05/30 07:44:25;;;;;;;24.50;5.27;;;;;;;11.34;100.00;102716.31;7392288;19;20472;-34
2023/05/30 07:46:55;;;;;;;17.30;6.80;;;;;;;11.05;100.00;102708.31;7396413;19;20450;-34
2023/05/30 07:49:25;;;;;;;14.43;4.93;;;;;;;11.15;100.00;102709.84;7393353;19;20448;-34
2023/05/30 07:51:54;;;;;;;13.80;4.57;;;;;;;11.05;100.00;102713.47;7396003;19;20413;-34
2023/05/30 07:54:24;;;;;;;20.47;7.00;;;;;;;11.18;100.00;102707.47;7392044;19;20527;-35
2023/05/30 07:56:54;;;;;;;12.07;4.30;;;;;;;11.14;100.00;102717.47;7398311;19;20433;-34
2023/05/30 07:59:26;;;;;;;17.90;5.60;;;;;;;11.04;100.00;102716.81;7394022;19;20448;-35
2023/05/30 08:01:55;;;;;;;14.53;5.80;;;;;;;10.85;100.00;102711.13;7395930;19;20817;-34
2023/05/30 08:04:25;;;;;;;22.97;7.40;;;;;;;11.16;100.00;102711.63;7392255;19;20457;-35
2023/05/30 08:06:54;;;;;;;16.40;6.60;;;;;;;11.06;100.00;102710.09;7397886;19;20427;-35
2023/05/30 08:09:24;;;;;;;15.80;7.30;;;;;;;11.11;100.00;102713.00;7392895;19;20461;-36
2023/05/30 08:11:54;;;;;;;10.77;4.13;;;;;;;11.01;100.00;102710.53;7395566;19;20414;-35
2023/05/30 08:14:26;;;;;;;18.80;7.97;;;;;;;11.00;100.00;102706.16;7391412;19;20792;-35
2023/05/30 08:16:56;;;;;;;10.97;4.43;;;;;;;11.12;100.00;102708.75;7395360;19;20407;-34
2023/05/30 08:19:26;;;;;;;18.47;9.97;;;;;;;11.30;100.00;102701.38;7392638;19;20527;-34
2023/05/30 08:21:55;;;;;;;15.10;4.50;;;;;;;11.32;100.00;102697.19;7395702;19;20478;-34
2023/05/30 08:24:28;;;;;;;17.40;7.10;;;;;;;11.24;100.00;102696.69;7391232;19;20555;-34
2023/05/30 08:27:00;;;;;;;11.80;4.43;;;;;;;11.18;100.00;102689.38;7397815;19;20422;-35
2023/05/30 08:29:34;;;;;;;8.17;3.80;;;;;;;11.19;100.00;102691.16;7392725;19;20512;-35
2023/05/30 08:32:03;;;;;;;9.70;3.80;;;;;;;11.06;100.00;102693.69;7395126;19;20417;-35
2023/05/30 08:34:33;;;;;;;13.73;4.57;;;;;;;11.03;100.00;102691.78;7391684;19;20484;-35
2023/05/30 08:37:02;;;;;;;12.23;4.40;;;;;;;11.09;100.00;102704.25;7394798;19;20409;-35
2023/05/30 08:39:33;;;;;;;10.70;3.87;;;;;;;11.05;100.00;102692.81;7392930;19;20454;-35
2023/05/30 08:42:02;;;;;;;10.43;4.00;;;;;;;11.08;100.00;102699.88;7394322;19;20400;-35
2023/05/30 08:44:35;;;;;;;20.30;4.50;;;;;;;11.13;100.00;102697.59;7390757;19;20457;-34
2023/05/30 08:47:06;;;;;;;10.13;4.30;;;;;;;11.22;100.00;102698.25;7395248;19;20418;-34
2023/05/30 08:49:36;;;;;;;16.83;5.57;;;;;;;11.16;100.00;102698.72;7389794;19;20443;-34
2023/05/30 08:52:06;;;;;;;11.20;3.77;;;;;;;11.25;100.00;102700.16;7394979;19;20413;-36
2023/05/30 08:54:39;;;;;;;21.73;9.50;;;;;;;11.24;100.00;102701.84;7390276;19;20479;-34
2023/05/30 08:57:13;;;;;;;16.47;6.43;;;;;;;11.16;100.00;102700.41;7395025;19;20452;-34
2023/05/30 08:59:46;;;;;;;9.93;4.10;;;;;;;11.37;100.00;102700.13;7392641;19;20436;-34
2023/05/30 09:02:16;;;;;;;15.27;5.03;;;;;;;11.42;100.00;102699.63;7395196;19;20412;-36
2023/05/30 09:04:45;;;;;;;11.57;4.30;;;;;;;11.50;100.00;102697.59;7390402;19;20483;-35
2023/05/30 09:07:17;;;;;;;12.60;4.90;;;;;;;11.40;100.00;102690.91;7393997;19;20980;-35
2023/05/30 09:09:47;;;;;;;10.97;4.17;;;;;;;11.45;100.00;102692.09;7390059;19;20876;-35
2023/05/30 09:12:16;;;;;;;9.03;3.90;;;;;;;11.54;100.00;102690.94;7394856;19;20422;-35
2023/05/30 09:14:48;;;;;;;15.00;5.90;;;;;;;11.58;100.00;102691.25;7390279;19;20528;-35
2023/05/30 09:17:18;;;;;;;12.43;4.87;;;;;;;11.55;100.00;102679.81;7395194;19;20477;-36
2023/05/30 09:19:51;;;;;;;17.63;4.80;;;;;;;11.58;100.00;102688.66;7391498;19;20456;-38
2023/05/30 09:22:21;;;;;;;11.47;4.10;;;;;;;11.64;100.00;102690.75;7395921;19;20436;-35
2023/05/30 09:25:00;;;;;;;10.13;4.03;;;;;;;11.60;100.00;102678.44;7390729;19;20495;-35
2023/05/30 09:27:32;;;;;;;15.30;4.47;;;;;;;11.59;100.00;102687.00;7390704;19;20424;-34
2023/05/30 09:30:09;;;;;;;13.60;5.43;;;;;;;11.69;100.00;102688.50;7393582;19;20827;-36
2023/05/30 09:32:39;;;;;;;13.60;4.30;;;;;;;11.77;100.00;102689.00;7391339;19;20483;-34
2023/05/30 09:35:12;;;;;;;17.23;7.70;;;;;;;11.65;100.00;102684.81;7393442;19;20466;-35
2023/05/30 09:37:43;;;;;;;13.87;4.53;;;;;;;11.71;100.00;102681.75;7392322;19;20414;-35
2023/05/30 09:40:17;;;;;;;10.80;4.50;;;;;;;11.80;100.00;102686.66;7394144;19;20407;-35
2023/05/30 09:42:49;;;;;;;12.50;4.40;;;;;;;11.90;100.00;102683.91;7389318;19;20816;-35
2023/05/30 09:45:23;;;;;;;14.87;4.67;;;;;;;11.84;100.00;102676.59;7393084;19;20868;-35
2023/05/30 09:47:54;;;;;;;10.93;5.03;;;;;;;11.93;100.00;102686.69;7388905;19;21274;-35
2023/05/30 09:50:26;;;;;;;6.53;3.47;;;;;;;11.96;100.00;102681.72;7394503;19;20418;-35
2023/05/30 09:52:56;;;;;;;16.13;7.27;;;;;;;11.92;100.00;102686.56;7388644;19;20448;-36
2023/05/30 09:55:27;;;;;;;8.70;3.70;;;;;;;12.01;100.00;102682.91;7393250;19;20453;-35
2023/05/30 09:57:56;;;;;;;18.37;5.47;;;;;;;11.87;100.00;102681.09;7387962;19;20410;-35
2023/05/30 10:00:31;;;;;;;13.00;4.00;;;;;;;11.95;100.00;102692.84;7392706;19;20404;-36
2023/05/30 10:03:01;;;;;;;8.63;4.00;;;;;;;11.83;100.00;102681.66;7387360;19;20488;-35
2023/05/30 10:05:31;;;;;;;9.57;4.07;;;;;;;11.85;100.00;102680.97;7392096;19;20450;-36
2023/05/30 10:08:01;;;;;;;7.40;3.77;;;;;;;12.06;100.00;102682.34;7389355;19;20422;-36
2023/05/30 10:10:30;;;;;;;69.73;31.60;;;;;;;12.18;100.00;102680.56;7392142;19;20413;-36
2023/05/30 10:13:01;;;;;;;16.30;4.87;;;;;;;12.23;100.00;102674.03;7390198;19;20483;-35
2023/05/30 10:15:34;;;;;;;17.43;4.30;;;;;;;12.15;100.00;102670.00;7392833;19;20453;-35
2023/05/30 10:18:08;;;;;;;10.30;4.20;;;;;;;12.08;100.00;102657.47;7390928;19;20479;-35
2023/05/30 10:20:40;;;;;;;9.87;4.40;;;;;;;12.15;100.00;102670.91;7394058;19;20414;-36
2023/05/30 10:23:09;;;;;;;20.03;5.90;;;;;;;12.10;100.00;102668.84;7388230;19;20418;-35
2023/05/30 10:25:39;;;;;;;16.47;6.57;;;;;;;12.15;100.00;102675.19;7392851;19;20454;-35
2023/05/30 10:28:11;;;;;;;7.70;3.87;;;;;;;12.19;100.00;102659.06;7389421;19;20497;-35
2023/05/30 10:30:45;;;;;;;11.47;4.53;;;;;;;12.12;100.00;102646.53;7394885;19;20406;-35
2023/05/30 10:33:16;;;;;;;11.83;4.63;;;;;;;12.20;100.00;102642.75;7387494;19;21013;-35
2023/05/30 10:35:55;;;;;;;14.47;4.17;;;;;;;12.25;100.00;102651.72;7391752;19;20447;-35
2023/05/30 10:38:26;;;;;;;16.70;7.07;;;;;;;12.27;100.00;102624.22;7387034;19;20423;-35
2023/05/30 10:41:02;;;;;;;15.97;5.60;;;;;;;12.33;100.00;102635.78;7391719;19;20418;-35
2023/05/30 10:43:40;;;;;;;10.27;5.57;;;;;;;12.28;100.00;102627.72;7387065;19;20789;-35
2023/05/30 10:46:24;;;;;;;8.67;4.60;;;;;;;12.27;100.00;102625.94;7391261;19;20922;-35
2023/05/30 10:48:55;;;;;;;11.83;4.70;;;;;;;12.26;100.00;102617.28;7389196;19;21016;-35
2023/05/30 10:51:25;;;;;;;12.10;5.70;;;;;;;12.35;100.00;102595.38;7391629;19;21269;-35
2023/05/30 10:53:55;;;;;;;11.47;4.77;;;;;;;12.41;100.00;102585.44;7386248;19;20451;-35
2023/05/30 10:56:41;;;;;;;28.47;11.07;;;;;;;12.44;100.00;102570.06;7391147;19;20410;-35
2023/05/30 10:59:16;;;;;;;10.53;4.80;;;;;;;12.54;100.00;102556.91;7388238;19;20466;-35
2023/05/30 11:02:01;;;;;;;9.40;5.17;;;;;;;12.57;100.00;102561.38;7390502;19;20847;-35
2023/05/30 11:04:38;;;;;;;14.10;5.03;;;;;;;12.59;100.00;102543.34;7382664;19;20474;-36
2023/05/30 11:07:14;;;;;;;11.60;5.83;;;;;;;12.64;100.00;102557.47;7394063;19;20408;-36
2023/05/30 11:09:44;;;;;;;13.20;6.10;;;;;;;12.60;100.00;102551.22;7384905;19;20442;-35
2023/05/30 11:12:23;;;;;;;10.63;5.17;;;;;;;12.57;100.00;102540.69;7393103;19;20407;-35
2023/05/30 11:14:57;;;;;;;16.73;6.80;;;;;;;12.68;100.00;102536.16;7394066;19;20470;-35
2023/05/30 11:17:35;;;;;;;11.63;4.50;;;;;;;12.85;100.00;102523.31;7397268;19;20423;-35
2023/05/30 11:20:12;;;;;;;17.13;7.43;;;;;;;12.91;100.00;102515.91;7397959;19;20811;-35
2023/05/30 11:22:42;;;;;;;15.53;6.13;;;;;;;12.88;100.00;102495.03;7392537;19;20403;-35
2023/05/30 11:25:23;;;;;;;25.23;10.83;;;;;;;12.79;100.00;102470.38;7395587;19;20449;-35
2023/05/30 11:28:02;;;;;;;12.60;5.50;;;;;;;12.52;100.00;102469.59;7390685;19;20414;-35
2023/05/30 11:30:33;;;;;;;10.13;4.70;;;;;;;12.67;100.00;102485.16;7397965;19;20955;-35
2023/05/30 11:33:06;;;;;;;8.57;4.77;;;;;;;12.74;100.00;102495.09;7392256;19;20798;-35